createdAt,value
2017-09-09T00:00:18.010Z,18.65
2017-09-09T00:00:46.072Z,18.69
2017-09-09T00:01:14.044Z,18.71
2017-09-09T00:01:41.998Z,18.65
2017-09-09T00:02:10.153Z,18.69
2017-09-09T00:02:38.417Z,18.6
2017-09-09T00:03:06.461Z,18.6
2017-09-09T00:03:34.613Z,18.54
2017-09-09T00:04:02.660Z,18.63
2017-09-09T00:04:30.720Z,18.65
2017-09-09T00:04:58.783Z,18.61
2017-09-09T00:05:26.793Z,18.61
2017-09-09T00:05:54.769Z,18.59
2017-09-09T00:06:22.742Z,18.65
2017-09-09T00:06:50.691Z,18.61
2017-09-09T00:07:18.668Z,18.69
2017-09-09T00:07:46.904Z,18.69
2017-09-09T00:08:14.860Z,18.71
2017-09-09T00:08:42.823Z,18.69
2017-09-09T00:09:10.614Z,18.71
2017-09-09T00:09:38.680Z,18.71
2017-09-09T00:10:06.814Z,18.74
2017-09-09T00:10:34.620Z,18.74
2017-09-09T00:11:02.576Z,18.82
2017-09-09T00:11:30.699Z,18.71
2017-09-09T00:11:58.825Z,18.74
2017-09-09T00:12:27.022Z,18.75
2017-09-09T00:12:55.332Z,18.71
2017-09-09T00:13:23.458Z,18.74
2017-09-09T00:13:51.610Z,18.72
2017-09-09T00:14:19.535Z,18.72
2017-09-09T00:14:47.704Z,18.72
2017-09-09T00:15:15.896Z,18.68
2017-09-09T00:15:43.999Z,18.68
2017-09-09T00:16:12.089Z,18.75
2017-09-09T00:16:40.042Z,18.65
2017-09-09T00:17:08.055Z,18.69
2017-09-09T00:17:36.014Z,18.61
2017-09-09T00:18:04.127Z,18.68
2017-09-09T00:18:32.298Z,18.6
2017-09-09T00:19:00.301Z,18.56
2017-09-09T00:19:28.460Z,18.6
2017-09-09T00:19:56.641Z,18.63
2017-09-09T00:20:24.821Z,18.61
2017-09-09T00:20:52.955Z,18.6
2017-09-09T00:21:20.982Z,18.56
2017-09-09T00:21:49.106Z,18.6
2017-09-09T00:22:17.268Z,18.65
2017-09-09T00:22:45.333Z,18.57
2017-09-09T00:23:13.366Z,18.57
2017-09-09T00:23:41.422Z,18.63
2017-09-09T00:24:09.469Z,18.6
2017-09-09T00:24:37.642Z,18.59
2017-09-09T00:25:05.578Z,18.56
2017-09-09T00:25:33.725Z,18.57
2017-09-09T00:26:01.888Z,18.54
2017-09-09T00:26:29.929Z,18.57
2017-09-09T00:26:58.002Z,18.49
2017-09-09T00:27:26.178Z,18.49
2017-09-09T00:27:54.425Z,18.53
2017-09-09T00:28:22.602Z,18.49
2017-09-09T00:28:50.590Z,18.54
2017-09-09T00:29:18.515Z,18.5
2017-09-09T00:29:46.700Z,18.5
2017-09-09T00:30:14.798Z,18.53
2017-09-09T00:30:42.845Z,18.39
2017-09-09T00:31:10.892Z,18.49
2017-09-09T00:31:39.019Z,18.51
2017-09-09T00:32:07.072Z,18.38
2017-09-09T00:32:35.093Z,18.39
2017-09-09T00:33:03.341Z,18.29
2017-09-09T00:33:31.465Z,18.31
2017-09-09T00:33:59.628Z,18.29
2017-09-09T00:34:27.685Z,18.26
2017-09-09T00:34:55.658Z,18.23
2017-09-09T00:35:23.607Z,18.24
2017-09-09T00:35:51.533Z,18.11
2017-09-09T00:36:19.464Z,18.13
2017-09-09T00:36:47.651Z,18.06
2017-09-09T00:37:15.613Z,18.13
2017-09-09T00:37:43.771Z,18.11
2017-09-09T00:38:11.827Z,18.13
2017-09-09T00:38:39.998Z,18.11
2017-09-09T00:39:07.943Z,18.11
2017-09-09T00:39:36.026Z,18.08
2017-09-09T00:40:04.184Z,18.06
2017-09-09T00:40:32.221Z,18.02
2017-09-09T00:41:00.287Z,17.98
2017-09-09T00:41:28.349Z,18.01
2017-09-09T00:41:56.302Z,18.02
2017-09-09T00:42:24.429Z,17.99
2017-09-09T00:42:52.566Z,17.96
2017-09-09T00:43:20.836Z,17.9
2017-09-09T00:43:48.957Z,17.9
2017-09-09T00:44:16.892Z,17.94
2017-09-09T00:44:44.756Z,17.95
2017-09-09T00:45:12.825Z,18.01
2017-09-09T00:45:40.822Z,17.95
2017-09-09T00:46:08.881Z,17.94
2017-09-09T00:46:36.940Z,17.96
2017-09-09T00:47:05.084Z,17.92
2017-09-09T00:47:33.202Z,17.94
2017-09-09T00:48:01.209Z,17.96
2017-09-09T00:48:29.241Z,17.95
2017-09-09T00:48:57.367Z,17.87
2017-09-09T00:49:25.370Z,17.88
2017-09-09T00:49:53.314Z,17.81
2017-09-09T00:50:21.469Z,17.94
2017-09-09T00:50:49.631Z,17.8
2017-09-09T00:51:17.652Z,17.79
2017-09-09T00:51:45.814Z,17.8
2017-09-09T00:52:13.965Z,17.83
2017-09-09T00:52:42.007Z,17.84
2017-09-09T00:53:10.186Z,17.86
2017-09-09T00:53:38.201Z,17.81
2017-09-09T00:54:06.249Z,17.88
2017-09-09T00:54:34.417Z,17.86
2017-09-09T00:55:02.355Z,17.84
2017-09-09T00:55:30.469Z,17.98
2017-09-09T00:55:58.522Z,17.87
2017-09-09T00:56:26.593Z,17.8
2017-09-09T00:56:54.633Z,17.86
2017-09-09T00:57:22.683Z,17.86
2017-09-09T00:57:50.517Z,17.79
2017-09-09T00:58:18.726Z,17.86
2017-09-09T00:58:46.788Z,17.87
2017-09-09T00:59:14.738Z,17.95
2017-09-09T00:59:42.878Z,17.9
2017-09-09T01:00:11.033Z,17.87
2017-09-09T01:00:39.119Z,17.9
2017-09-09T01:01:07.141Z,17.9
2017-09-09T01:01:35.305Z,17.9
2017-09-09T01:02:03.457Z,17.92
2017-09-09T01:02:31.423Z,17.88
2017-09-09T01:02:59.523Z,17.86
2017-09-09T01:03:27.735Z,17.84
2017-09-09T01:03:55.737Z,17.83
2017-09-09T01:04:23.561Z,17.9
2017-09-09T01:04:51.401Z,17.76
2017-09-09T01:05:19.432Z,17.79
2017-09-09T01:05:47.410Z,17.74
2017-09-09T01:06:15.460Z,17.63
2017-09-09T01:06:43.522Z,17.66
2017-09-09T01:07:11.628Z,17.74
2017-09-09T01:07:39.695Z,17.69
2017-09-09T01:08:07.730Z,17.73
2017-09-09T01:08:35.979Z,17.65
2017-09-09T01:09:04.147Z,17.58
2017-09-09T01:09:32.195Z,17.63
2017-09-09T01:10:00.266Z,17.57
2017-09-09T01:10:28.421Z,17.66
2017-09-09T01:10:56.404Z,17.58
2017-09-09T01:11:24.433Z,17.63
2017-09-09T01:11:52.598Z,17.55
2017-09-09T01:12:20.545Z,17.68
2017-09-09T01:12:48.631Z,17.66
2017-09-09T01:13:16.924Z,17.63
2017-09-09T01:13:45.071Z,17.66
2017-09-09T01:14:13.124Z,17.65
2017-09-09T01:14:41.057Z,17.62
2017-09-09T01:15:09.138Z,17.62
2017-09-09T01:15:37.076Z,17.6
2017-09-09T01:16:05.001Z,17.54
2017-09-09T01:16:32.971Z,17.54
2017-09-09T01:17:01.000Z,17.54
2017-09-09T01:17:29.126Z,17.55
2017-09-09T01:17:57.016Z,17.55
2017-09-09T01:18:24.939Z,17.54
2017-09-09T01:18:52.918Z,17.52
2017-09-09T01:19:20.872Z,17.58
2017-09-09T01:19:49.090Z,17.54
2017-09-09T01:20:17.089Z,17.55
2017-09-09T01:20:45.276Z,17.55
2017-09-09T01:21:13.412Z,17.54
2017-09-09T01:21:41.566Z,17.47
2017-09-09T01:22:09.757Z,17.54
2017-09-09T01:22:37.892Z,17.52
2017-09-09T01:23:05.975Z,17.47
2017-09-09T01:23:34.045Z,17.43
2017-09-09T01:24:02.112Z,17.45
2017-09-09T01:24:30.253Z,17.46
2017-09-09T01:24:58.338Z,17.36
2017-09-09T01:25:26.437Z,17.38
2017-09-09T01:25:54.384Z,17.45
2017-09-09T01:26:22.507Z,17.42
2017-09-09T01:26:50.643Z,17.42
2017-09-09T01:27:18.606Z,17.4
2017-09-09T01:27:46.701Z,17.43
2017-09-09T01:28:14.672Z,17.43
2017-09-09T01:28:42.893Z,17.38
2017-09-09T01:29:10.942Z,17.28
2017-09-09T01:29:39.099Z,17.36
2017-09-09T01:30:07.242Z,17.32
2017-09-09T01:30:35.389Z,17.31
2017-09-09T01:31:03.448Z,17.32
2017-09-09T01:31:31.393Z,17.38
2017-09-09T01:31:59.563Z,17.3
2017-09-09T01:32:27.734Z,17.36
2017-09-09T01:32:55.640Z,17.38
2017-09-09T01:33:23.813Z,17.35
2017-09-09T01:33:51.930Z,17.24
2017-09-09T01:34:20.053Z,17.18
2017-09-09T01:34:48.073Z,17.22
2017-09-09T01:35:16.187Z,17.2
2017-09-09T01:35:44.204Z,17.22
2017-09-09T01:36:12.222Z,17.21
2017-09-09T01:36:40.247Z,17.21
2017-09-09T01:37:08.399Z,17.25
2017-09-09T01:37:36.347Z,17.27
2017-09-09T01:38:04.503Z,17.22
2017-09-09T01:38:32.676Z,17.22
2017-09-09T01:39:00.633Z,17.22
2017-09-09T01:39:28.690Z,17.2
2017-09-09T01:39:56.814Z,17.18
2017-09-09T01:40:24.844Z,17.15
2017-09-09T01:40:52.993Z,17.09
2017-09-09T01:41:21.052Z,17.17
2017-09-09T01:41:49.189Z,17.1
2017-09-09T01:42:17.266Z,17.15
2017-09-09T01:42:45.440Z,17.3
2017-09-09T01:43:13.588Z,17.12
2017-09-09T01:43:41.756Z,17.2
2017-09-09T01:44:09.921Z,17.17
2017-09-09T01:44:37.986Z,17.18
2017-09-09T01:45:06.132Z,17.13
2017-09-09T01:45:34.242Z,17.15
2017-09-09T01:46:02.386Z,17.15
2017-09-09T01:46:30.454Z,17.07
2017-09-09T01:46:58.601Z,17.02
2017-09-09T01:47:26.654Z,17.03
2017-09-09T01:47:54.827Z,16.97
2017-09-09T01:48:22.972Z,17.03
2017-09-09T01:48:51.231Z,16.95
2017-09-09T01:49:19.130Z,16.94
2017-09-09T01:49:47.184Z,16.94
2017-09-09T01:50:15.344Z,16.95
2017-09-09T01:50:43.462Z,16.95
2017-09-09T01:51:11.637Z,16.9
2017-09-09T01:51:39.686Z,17
2017-09-09T01:52:07.702Z,16.97
2017-09-09T01:52:35.665Z,16.94
2017-09-09T01:53:03.711Z,16.94
2017-09-09T01:53:31.756Z,16.99
2017-09-09T01:53:59.937Z,16.91
2017-09-09T01:54:27.968Z,16.95
2017-09-09T01:54:55.804Z,17.02
2017-09-09T01:55:23.825Z,17.03
2017-09-09T01:55:51.917Z,17.05
2017-09-09T01:56:19.854Z,17.02
2017-09-09T01:56:47.798Z,17.07
2017-09-09T01:57:15.879Z,17.1
2017-09-09T01:57:43.992Z,17.03
2017-09-09T01:58:12.078Z,17.09
2017-09-09T01:58:40.109Z,17.03
2017-09-09T01:59:08.341Z,17.05
2017-09-09T01:59:36.375Z,17.09
2017-09-09T02:00:04.354Z,17.02
2017-09-09T02:00:32.286Z,17
2017-09-09T02:01:00.338Z,17
2017-09-09T02:01:28.403Z,17
2017-09-09T02:01:56.546Z,17.03
2017-09-09T02:02:24.588Z,17.02
2017-09-09T02:02:52.762Z,17.09
2017-09-09T02:03:20.806Z,17.03
2017-09-09T02:03:48.924Z,16.88
2017-09-09T02:04:16.971Z,16.95
2017-09-09T02:04:45.116Z,16.94
2017-09-09T02:05:13.248Z,16.92
2017-09-09T02:05:41.212Z,16.97
2017-09-09T02:06:09.264Z,16.91
2017-09-09T02:06:37.336Z,16.94
2017-09-09T02:07:05.420Z,16.94
2017-09-09T02:07:33.459Z,16.97
2017-09-09T02:08:01.435Z,16.91
2017-09-09T02:08:29.604Z,16.91
2017-09-09T02:08:57.837Z,16.95
2017-09-09T02:09:25.922Z,16.97
2017-09-09T02:09:54.001Z,16.84
2017-09-09T02:10:22.147Z,16.81
2017-09-09T02:10:50.207Z,16.76
2017-09-09T02:11:18.398Z,16.84
2017-09-09T02:11:46.361Z,16.76
2017-09-09T02:12:14.496Z,16.74
2017-09-09T02:12:42.639Z,16.8
2017-09-09T02:13:10.620Z,16.73
2017-09-09T02:13:38.702Z,16.72
2017-09-09T02:14:06.944Z,16.77
2017-09-09T02:14:35.013Z,16.8
2017-09-09T02:15:03.210Z,16.81
2017-09-09T02:15:31.359Z,16.81
2017-09-09T02:15:59.395Z,16.77
2017-09-09T02:16:27.486Z,16.72
2017-09-09T02:16:55.653Z,16.73
2017-09-09T02:17:23.826Z,16.7
2017-09-09T02:17:51.988Z,16.7
2017-09-09T02:18:20.140Z,16.67
2017-09-09T02:18:48.095Z,16.73
2017-09-09T02:19:16.249Z,16.74
2017-09-09T02:19:44.221Z,16.73
2017-09-09T02:20:12.188Z,16.67
2017-09-09T02:20:40.285Z,16.66
2017-09-09T02:21:08.130Z,16.66
2017-09-09T02:21:36.269Z,16.69
2017-09-09T02:22:04.447Z,16.72
2017-09-09T02:22:32.455Z,16.76
2017-09-09T02:23:00.658Z,16.74
2017-09-09T02:23:28.756Z,16.73
2017-09-09T02:23:56.882Z,16.72
2017-09-09T02:24:25.184Z,16.7
2017-09-09T02:24:53.376Z,16.65
2017-09-09T02:25:21.486Z,16.65
2017-09-09T02:25:49.524Z,16.72
2017-09-09T02:26:17.578Z,16.72
2017-09-09T02:26:45.510Z,16.7
2017-09-09T02:27:13.689Z,16.72
2017-09-09T02:27:41.525Z,16.74
2017-09-09T02:28:09.667Z,16.7
2017-09-09T02:28:37.676Z,16.69
2017-09-09T02:29:05.711Z,16.76
2017-09-09T02:29:33.730Z,16.72
2017-09-09T02:30:01.654Z,16.73
2017-09-09T02:30:29.714Z,16.8
2017-09-09T02:30:57.798Z,16.81
2017-09-09T02:31:25.569Z,16.74
2017-09-09T02:31:53.481Z,16.76
2017-09-09T02:32:21.524Z,16.81
2017-09-09T02:32:49.628Z,16.81
2017-09-09T02:33:17.631Z,16.82
2017-09-09T02:33:45.585Z,16.8
2017-09-09T02:34:13.764Z,16.7
2017-09-09T02:34:41.915Z,16.81
2017-09-09T02:35:09.886Z,16.8
2017-09-09T02:35:37.909Z,16.72
2017-09-09T02:36:06.048Z,16.7
2017-09-09T02:36:33.999Z,16.72
2017-09-09T02:37:02.078Z,16.69
2017-09-09T02:37:30.223Z,16.72
2017-09-09T02:37:58.386Z,16.73
2017-09-09T02:38:26.564Z,16.69
2017-09-09T02:38:54.462Z,16.66
2017-09-09T02:39:22.577Z,16.7
2017-09-09T02:39:50.696Z,16.76
2017-09-09T02:40:18.750Z,16.65
2017-09-09T02:40:46.814Z,16.73
2017-09-09T02:41:14.913Z,16.76
2017-09-09T02:41:42.870Z,16.69
2017-09-09T02:42:10.887Z,16.69
2017-09-09T02:42:39.066Z,16.7
2017-09-09T02:43:07.244Z,16.74
2017-09-09T02:43:35.374Z,16.72
2017-09-09T02:44:03.566Z,16.62
2017-09-09T02:44:31.791Z,16.67
2017-09-09T02:44:59.801Z,16.65
2017-09-09T02:45:27.963Z,16.72
2017-09-09T02:45:56.016Z,16.7
2017-09-09T02:46:24.133Z,16.8
2017-09-09T02:46:52.265Z,16.73
2017-09-09T02:47:20.319Z,16.67
2017-09-09T02:47:48.253Z,16.8
2017-09-09T02:48:16.207Z,16.72
2017-09-09T02:48:44.301Z,16.74
2017-09-09T02:49:12.314Z,16.69
2017-09-09T02:49:40.537Z,16.66
2017-09-09T02:50:08.617Z,16.7
2017-09-09T02:50:36.781Z,16.73
2017-09-09T02:51:04.934Z,16.74
2017-09-09T02:51:32.819Z,16.7
2017-09-09T02:52:00.737Z,16.74
2017-09-09T02:52:28.695Z,16.76
2017-09-09T02:52:56.821Z,16.74
2017-09-09T02:53:24.849Z,16.65
2017-09-09T02:53:52.925Z,16.66
2017-09-09T02:54:21.161Z,16.8
2017-09-09T02:54:49.286Z,16.74
2017-09-09T02:55:17.466Z,16.76
2017-09-09T02:55:45.595Z,16.77
2017-09-09T02:56:13.707Z,16.72
2017-09-09T02:56:41.837Z,16.69
2017-09-09T02:57:10.013Z,16.69
2017-09-09T02:57:38.161Z,16.65
2017-09-09T02:58:06.298Z,16.74
2017-09-09T02:58:34.369Z,16.69
2017-09-09T02:59:02.518Z,16.72
2017-09-09T02:59:30.650Z,16.74
2017-09-09T02:59:58.635Z,16.62
2017-09-09T03:00:26.650Z,16.7
2017-09-09T03:00:54.602Z,16.62
2017-09-09T03:01:22.445Z,16.65
2017-09-09T03:01:50.621Z,16.67
2017-09-09T03:02:18.681Z,16.66
2017-09-09T03:02:46.654Z,16.77
2017-09-09T03:03:14.627Z,16.74
2017-09-09T03:03:42.794Z,16.7
2017-09-09T03:04:10.865Z,16.65
2017-09-09T03:04:39.001Z,16.72
2017-09-09T03:05:07.106Z,16.73
2017-09-09T03:05:35.282Z,16.76
2017-09-09T03:06:03.413Z,16.7
2017-09-09T03:06:31.548Z,16.77
2017-09-09T03:06:59.489Z,16.69
2017-09-09T03:07:27.306Z,16.76
2017-09-09T03:07:55.494Z,16.74
2017-09-09T03:08:23.661Z,16.76
2017-09-09T03:08:51.716Z,16.81
2017-09-09T03:09:19.665Z,16.82
2017-09-09T03:09:47.801Z,16.77
2017-09-09T03:10:15.658Z,16.8
2017-09-09T03:10:43.720Z,16.81
2017-09-09T03:11:11.758Z,16.69
2017-09-09T03:11:39.809Z,16.77
2017-09-09T03:12:07.963Z,16.69
2017-09-09T03:12:35.898Z,16.76
2017-09-09T03:13:03.960Z,16.84
2017-09-09T03:13:32.071Z,16.73
2017-09-09T03:14:00.257Z,16.72
2017-09-09T03:14:28.191Z,16.74
2017-09-09T03:14:56.420Z,16.7
2017-09-09T03:15:24.533Z,16.7
2017-09-09T03:15:52.602Z,16.67
2017-09-09T03:16:20.590Z,16.72
2017-09-09T03:16:48.636Z,16.69
2017-09-09T03:17:16.748Z,16.74
2017-09-09T03:17:44.785Z,16.74
2017-09-09T03:18:12.913Z,16.73
2017-09-09T03:18:40.942Z,16.65
2017-09-09T03:19:08.874Z,16.73
2017-09-09T03:19:37.041Z,16.63
2017-09-09T03:20:04.951Z,16.66
2017-09-09T03:20:33.119Z,16.63
2017-09-09T03:21:01.085Z,16.65
2017-09-09T03:21:29.096Z,16.54
2017-09-09T03:21:57.035Z,16.62
2017-09-09T03:22:25.182Z,16.51
2017-09-09T03:22:53.219Z,16.54
2017-09-09T03:23:21.351Z,16.58
2017-09-09T03:23:49.532Z,16.49
2017-09-09T03:24:17.718Z,16.52
2017-09-09T03:24:45.736Z,16.45
2017-09-09T03:25:13.916Z,16.49
2017-09-09T03:25:42.050Z,16.47
2017-09-09T03:26:10.205Z,16.49
2017-09-09T03:26:38.130Z,16.45
2017-09-09T03:27:06.160Z,16.44
2017-09-09T03:27:34.072Z,16.44
2017-09-09T03:28:02.118Z,16.4
2017-09-09T03:28:30.147Z,16.45
2017-09-09T03:28:58.283Z,16.44
2017-09-09T03:29:26.204Z,16.44
2017-09-09T03:29:54.398Z,16.44
2017-09-09T03:30:22.451Z,16.44
2017-09-09T03:30:50.472Z,16.48
2017-09-09T03:31:18.451Z,16.4
2017-09-09T03:31:46.353Z,16.42
2017-09-09T03:32:14.483Z,16.48
2017-09-09T03:32:42.593Z,16.42
2017-09-09T03:33:10.787Z,16.34
2017-09-09T03:33:38.877Z,16.33
2017-09-09T03:34:06.993Z,16.3
2017-09-09T03:34:35.147Z,16.42
2017-09-09T03:35:03.506Z,16.45
2017-09-09T03:35:31.609Z,16.39
2017-09-09T03:35:59.650Z,16.37
2017-09-09T03:36:27.797Z,16.34
2017-09-09T03:36:55.945Z,16.29
2017-09-09T03:37:23.862Z,16.36
2017-09-09T03:37:51.981Z,16.33
2017-09-09T03:38:19.954Z,16.33
2017-09-09T03:38:48.098Z,16.22
2017-09-09T03:39:16.272Z,16.18
2017-09-09T03:39:44.369Z,16.11
2017-09-09T03:40:12.510Z,16.14
2017-09-09T03:40:40.554Z,16.21
2017-09-09T03:41:08.728Z,16.22
2017-09-09T03:41:36.820Z,16.18
2017-09-09T03:42:04.826Z,16.21
2017-09-09T03:42:32.855Z,16.1
2017-09-09T03:43:00.888Z,16.16
2017-09-09T03:43:29.063Z,16.13
2017-09-09T03:43:57.145Z,16.14
2017-09-09T03:44:25.294Z,16.13
2017-09-09T03:44:53.520Z,16.08
2017-09-09T03:45:21.475Z,16.1
2017-09-09T03:45:49.659Z,16.18
2017-09-09T03:46:17.859Z,16.13
2017-09-09T03:46:45.944Z,16.11
2017-09-09T03:47:13.766Z,16.14
2017-09-09T03:47:41.794Z,16.13
2017-09-09T03:48:09.869Z,16.16
2017-09-09T03:48:37.813Z,16.08
2017-09-09T03:49:05.945Z,16.13
2017-09-09T03:49:34.127Z,16.1
2017-09-09T03:50:02.241Z,16.1
2017-09-09T03:50:30.385Z,16.11
2017-09-09T03:50:58.310Z,16.17
2017-09-09T03:51:26.387Z,16.22
2017-09-09T03:51:54.502Z,16.22
2017-09-09T03:52:22.646Z,16.21
2017-09-09T03:52:50.802Z,16.21
2017-09-09T03:53:18.955Z,16.17
2017-09-09T03:53:46.990Z,16.18
2017-09-09T03:54:14.971Z,16.13
2017-09-09T03:54:42.975Z,16.21
2017-09-09T03:55:11.122Z,16.16
2017-09-09T03:55:39.169Z,16.21
2017-09-09T03:56:07.149Z,16.21
2017-09-09T03:56:35.203Z,16.25
2017-09-09T03:57:03.399Z,16.21
2017-09-09T03:57:31.507Z,16.22
2017-09-09T03:57:59.634Z,16.17
2017-09-09T03:58:27.793Z,16.27
2017-09-09T03:58:55.946Z,16.21
2017-09-09T03:59:23.931Z,16.21
2017-09-09T03:59:51.993Z,16.29
2017-09-09T04:00:20.033Z,16.32
2017-09-09T04:00:48.206Z,16.26
2017-09-09T04:01:16.353Z,16.34
2017-09-09T04:01:44.393Z,16.3
2017-09-09T04:02:12.543Z,16.21
2017-09-09T04:02:40.485Z,16.25
2017-09-09T04:03:08.618Z,16.26
2017-09-09T04:03:36.677Z,16.25
2017-09-09T04:04:04.744Z,16.32
2017-09-09T04:04:32.864Z,16.17
2017-09-09T04:05:01.000Z,16.26
2017-09-09T04:05:29.045Z,16.25
2017-09-09T04:05:57.163Z,16.26
2017-09-09T04:06:25.159Z,16.22
2017-09-09T04:06:53.316Z,16.18
2017-09-09T04:07:21.383Z,16.18
2017-09-09T04:07:49.289Z,16.26
2017-09-09T04:08:17.332Z,16.21
2017-09-09T04:08:45.384Z,16.18
2017-09-09T04:09:13.447Z,16.21
2017-09-09T04:09:41.367Z,16.11
2017-09-09T04:10:09.613Z,16.16
2017-09-09T04:10:37.547Z,16.14
2017-09-09T04:11:05.633Z,16.17
2017-09-09T04:11:33.704Z,16.16
2017-09-09T04:12:01.546Z,16.16
2017-09-09T04:12:29.618Z,16.17
2017-09-09T04:12:57.642Z,16.13
2017-09-09T04:13:25.739Z,16.1
2017-09-09T04:13:53.616Z,16.1
2017-09-09T04:14:21.691Z,16.16
2017-09-09T04:14:49.882Z,16.13
2017-09-09T04:15:18.214Z,16.11
2017-09-09T04:15:45.997Z,16.04
2017-09-09T04:16:14.038Z,16.17
2017-09-09T04:16:42.095Z,16
2017-09-09T04:17:10.259Z,16.07
2017-09-09T04:17:38.336Z,16.08
2017-09-09T04:18:06.479Z,16
2017-09-09T04:18:34.515Z,16.1
2017-09-09T04:19:02.463Z,16.02
2017-09-09T04:19:30.492Z,16.11
2017-09-09T04:19:58.466Z,16
2017-09-09T04:20:26.674Z,15.98
2017-09-09T04:20:54.729Z,16
2017-09-09T04:21:22.874Z,15.95
2017-09-09T04:21:50.942Z,15.99
2017-09-09T04:22:18.987Z,15.98
2017-09-09T04:22:46.831Z,15.86
2017-09-09T04:23:14.584Z,15.93
2017-09-09T04:23:42.704Z,15.96
2017-09-09T04:24:10.597Z,15.88
2017-09-09T04:24:38.752Z,15.88
2017-09-09T04:25:06.887Z,15.89
2017-09-09T04:25:35.152Z,15.86
2017-09-09T04:26:03.082Z,15.89
2017-09-09T04:26:31.257Z,15.86
2017-09-09T04:26:59.384Z,15.83
2017-09-09T04:27:27.431Z,15.8
2017-09-09T04:27:55.338Z,15.81
2017-09-09T04:28:23.347Z,15.75
2017-09-09T04:28:51.471Z,15.78
2017-09-09T04:29:19.542Z,15.77
2017-09-09T04:29:47.720Z,15.73
2017-09-09T04:30:15.759Z,15.78
2017-09-09T04:30:43.843Z,15.75
2017-09-09T04:31:11.904Z,15.8
2017-09-09T04:31:40.052Z,15.63
2017-09-09T04:32:08.080Z,15.68
2017-09-09T04:32:36.217Z,15.73
2017-09-09T04:33:04.257Z,15.67
2017-09-09T04:33:32.444Z,15.71
2017-09-09T04:34:00.588Z,15.7
2017-09-09T04:34:28.740Z,15.63
2017-09-09T04:34:56.583Z,15.8
2017-09-09T04:35:24.723Z,15.71
2017-09-09T04:35:52.880Z,15.68
2017-09-09T04:36:20.950Z,15.68
2017-09-09T04:36:49.000Z,15.67
2017-09-09T04:37:17.126Z,15.63
2017-09-09T04:37:45.125Z,15.62
2017-09-09T04:38:13.158Z,15.63
2017-09-09T04:38:41.332Z,15.62
2017-09-09T04:39:09.359Z,15.71
2017-09-09T04:39:37.427Z,15.67
2017-09-09T04:40:05.589Z,15.65
2017-09-09T04:40:33.839Z,15.71
2017-09-09T04:41:02.014Z,15.67
2017-09-09T04:41:30.071Z,15.7
2017-09-09T04:41:58.142Z,15.7
2017-09-09T04:42:26.263Z,15.68
2017-09-09T04:42:54.439Z,15.63
2017-09-09T04:43:22.431Z,15.62
2017-09-09T04:43:50.574Z,15.68
2017-09-09T04:44:18.622Z,15.67
2017-09-09T04:44:46.666Z,15.62
2017-09-09T04:45:14.702Z,15.67
2017-09-09T04:45:43.021Z,15.59
2017-09-09T04:46:10.948Z,15.65
2017-09-09T04:46:39.091Z,15.62
2017-09-09T04:47:06.982Z,15.59
2017-09-09T04:47:35.136Z,15.58
2017-09-09T04:48:03.300Z,15.58
2017-09-09T04:48:31.454Z,15.53
2017-09-09T04:48:59.412Z,15.53
2017-09-09T04:49:27.564Z,15.55
2017-09-09T04:49:55.709Z,15.56
2017-09-09T04:50:23.882Z,15.58
2017-09-09T04:50:52.154Z,15.62
2017-09-09T04:51:20.193Z,15.55
2017-09-09T04:51:48.322Z,15.59
2017-09-09T04:52:16.384Z,15.47
2017-09-09T04:52:44.217Z,15.53
2017-09-09T04:53:12.279Z,15.55
2017-09-09T04:53:40.350Z,15.45
2017-09-09T04:54:08.308Z,15.55
2017-09-09T04:54:36.426Z,15.51
2017-09-09T04:55:04.496Z,15.49
2017-09-09T04:55:32.540Z,15.6
2017-09-09T04:56:00.826Z,15.45
2017-09-09T04:56:28.865Z,15.45
2017-09-09T04:56:56.697Z,15.51
2017-09-09T04:57:24.731Z,15.51
2017-09-09T04:57:52.583Z,15.6
2017-09-09T04:58:20.609Z,15.58
2017-09-09T04:58:48.705Z,15.45
2017-09-09T04:59:16.856Z,15.52
2017-09-09T04:59:44.716Z,15.56
2017-09-09T05:00:12.581Z,15.49
2017-09-09T05:00:40.746Z,15.45
2017-09-09T05:01:08.863Z,15.56
2017-09-09T05:01:37.021Z,15.6
2017-09-09T05:02:05.146Z,15.45
2017-09-09T05:02:33.283Z,15.51
2017-09-09T05:03:01.240Z,15.44
2017-09-09T05:03:29.362Z,15.44
2017-09-09T05:03:57.285Z,15.51
2017-09-09T05:04:25.270Z,15.49
2017-09-09T05:04:53.356Z,15.45
2017-09-09T05:05:21.332Z,15.51
2017-09-09T05:05:49.467Z,15.43
2017-09-09T05:06:17.630Z,15.55
2017-09-09T05:06:45.642Z,15.47
2017-09-09T05:07:13.757Z,15.51
2017-09-09T05:07:41.907Z,15.51
2017-09-09T05:08:09.961Z,15.49
2017-09-09T05:08:37.966Z,15.4
2017-09-09T05:09:06.001Z,15.41
2017-09-09T05:09:34.043Z,15.43
2017-09-09T05:10:02.065Z,15.37
2017-09-09T05:10:29.891Z,15.34
2017-09-09T05:10:58.025Z,15.35
2017-09-09T05:11:25.819Z,15.45
2017-09-09T05:11:53.693Z,15.51
2017-09-09T05:12:21.876Z,15.44
2017-09-09T05:12:49.835Z,15.31
2017-09-09T05:13:17.888Z,15.31
2017-09-09T05:13:46.015Z,15.25
2017-09-09T05:14:14.040Z,15.31
2017-09-09T05:14:42.110Z,15.33
2017-09-09T05:15:10.208Z,15.31
2017-09-09T05:15:38.297Z,15.27
2017-09-09T05:16:06.356Z,15.3
2017-09-09T05:16:34.495Z,15.31
2017-09-09T05:17:02.656Z,15.27
2017-09-09T05:17:30.812Z,15.26
2017-09-09T05:17:58.879Z,15.27
2017-09-09T05:18:26.740Z,15.26
2017-09-09T05:18:54.826Z,15.25
2017-09-09T05:19:22.859Z,15.3
2017-09-09T05:19:51.000Z,15.34
2017-09-09T05:20:19.129Z,15.27
2017-09-09T05:20:47.177Z,15.27
2017-09-09T05:21:15.322Z,15.23
2017-09-09T05:21:43.463Z,15.23
2017-09-09T05:22:11.596Z,15.27
2017-09-09T05:22:39.738Z,15.31
2017-09-09T05:23:07.877Z,15.31
2017-09-09T05:23:36.027Z,15.33
2017-09-09T05:24:04.094Z,15.35
2017-09-09T05:24:32.232Z,15.3
2017-09-09T05:25:00.351Z,15.23
2017-09-09T05:25:28.540Z,15.3
2017-09-09T05:25:56.797Z,15.31
2017-09-09T05:26:24.924Z,15.38
2017-09-09T05:26:53.082Z,15.35
2017-09-09T05:27:21.111Z,15.37
2017-09-09T05:27:49.034Z,15.34
2017-09-09T05:28:16.983Z,15.41
2017-09-09T05:28:45.123Z,15.34
2017-09-09T05:29:13.151Z,15.37
2017-09-09T05:29:41.052Z,15.43
2017-09-09T05:30:08.960Z,15.41
2017-09-09T05:30:36.973Z,15.38
2017-09-09T05:31:05.056Z,15.43
2017-09-09T05:31:33.210Z,15.47
2017-09-09T05:32:01.364Z,15.4
2017-09-09T05:32:29.407Z,15.37
2017-09-09T05:32:57.266Z,15.35
2017-09-09T05:33:25.382Z,15.43
2017-09-09T05:33:53.319Z,15.41
2017-09-09T05:34:21.356Z,15.37
2017-09-09T05:34:49.487Z,15.44
2017-09-09T05:35:17.437Z,15.33
2017-09-09T05:35:45.600Z,15.41
2017-09-09T05:36:13.776Z,15.37
2017-09-09T05:36:41.875Z,15.51
2017-09-09T05:37:09.890Z,15.35
2017-09-09T05:37:37.887Z,15.3
2017-09-09T05:38:05.723Z,15.37
2017-09-09T05:38:33.848Z,15.49
2017-09-09T05:39:02.005Z,15.4
2017-09-09T05:39:30.175Z,15.3
2017-09-09T05:39:58.316Z,15.38
2017-09-09T05:40:26.345Z,15.23
2017-09-09T05:40:54.176Z,15.33
2017-09-09T05:41:22.348Z,15.31
2017-09-09T05:41:50.495Z,15.34
2017-09-09T05:42:18.471Z,15.26
2017-09-09T05:42:46.634Z,15.25
2017-09-09T05:43:14.663Z,15.27
2017-09-09T05:43:42.695Z,15.26
2017-09-09T05:44:10.726Z,15.26
2017-09-09T05:44:38.776Z,15.3
2017-09-09T05:45:06.689Z,15.26
2017-09-09T05:45:34.792Z,15.27
2017-09-09T05:46:02.883Z,15.13
2017-09-09T05:46:31.019Z,15.2
2017-09-09T05:46:59.169Z,15.18
2017-09-09T05:47:27.297Z,15.18
2017-09-09T05:47:55.275Z,15.16
2017-09-09T05:48:23.214Z,15.16
2017-09-09T05:48:51.252Z,15.15
2017-09-09T05:49:19.226Z,15.19
2017-09-09T05:49:47.243Z,15.13
2017-09-09T05:50:15.259Z,15.18
2017-09-09T05:50:43.433Z,15.18
2017-09-09T05:51:11.679Z,15.2
2017-09-09T05:51:39.717Z,15.12
2017-09-09T05:52:07.692Z,15.15
2017-09-09T05:52:35.635Z,15.15
2017-09-09T05:53:03.781Z,15.2
2017-09-09T05:53:31.819Z,15.19
2017-09-09T05:53:59.867Z,15.16
2017-09-09T05:54:27.915Z,15.22
2017-09-09T05:54:56.067Z,15.23
2017-09-09T05:55:24.104Z,15.22
2017-09-09T05:55:52.254Z,15.23
2017-09-09T05:56:20.559Z,15.31
2017-09-09T05:56:48.609Z,15.27
2017-09-09T05:57:16.700Z,15.2
2017-09-09T05:57:44.718Z,15.2
2017-09-09T05:58:12.649Z,15.3
2017-09-09T05:58:40.698Z,15.22
2017-09-09T05:59:08.737Z,15.33
2017-09-09T05:59:36.859Z,15.3
2017-09-09T06:00:04.784Z,15.27
2017-09-09T06:00:32.648Z,15.22
2017-09-09T06:01:00.823Z,15.27
2017-09-09T06:01:28.940Z,15.25
2017-09-09T06:01:56.951Z,15.26
2017-09-09T06:02:25.023Z,15.27
2017-09-09T06:02:53.157Z,15.33
2017-09-09T06:03:20.863Z,15.3